Flight Track Log - Related Links

Times and Time Zones

All times are in EDT time to prevent confusion due to time zone crossing. See the FLG3729 flight status page for this flight to view local times or setup timezone preferences in your user account.

Time Position Orientation Groundspeed Altitude Reporting Facility
EDT Latitude Longitude Course Direction KTS MPH feet Rate Location/Type
Wed 06:12:51 AM 42.7631 -73.8089 304° West 145 167 1,200  Level Boston Center
Wed 06:13:27 AM 42.7922 -73.8067 North 158 182 2,400 2,382 Climbing Boston Center
Wed 06:13:59 AM 42.8236 -73.8158 348° North 213 245 3,900 2,478 Climbing Boston Center
Wed 06:14:59 AM 42.8689 -73.8594 325° Northwest 219 252 6,200 2,900 Climbing Boston Center
Wed 06:15:59 AM 42.9347 -73.9119 330° Northwest 242 278 9,700 2,650 Climbing Boston Center
Wed 06:16:00 AM 42.8268 -74.2875 281° West  Level FlightAware Approximate
Wed 06:16:59 AM 43.0050 -73.9703 329° Northwest 278 320 11,500  Level Boston Center
Wed 06:17:00 AM 42.8465 -74.4122 283° West  Level FlightAware Approximate
Wed 06:17:59 AM 43.0328 -74.0761 290° West 285 328 13,700  Level Boston Center
Wed 06:18:00 AM 42.8680 -74.5361 304° West  Level FlightAware Approximate
Wed 06:18:59 AM 43.0411 -74.2014 275° West 312 359 15,600  Level Boston Center
Wed 06:19:59 AM 43.0497 -74.3239 276° West 321 369 17,300 1,550 Climbing Boston Center
Wed 06:20:59 AM 43.0578 -74.4519 275° West 333 383 18,700 1,300 Climbing Boston Center
Wed 06:21:59 AM 43.0681 -74.5858 276° West 344 396 19,900 1,050 Climbing Boston Center
Wed 06:22:59 AM 43.0758 -74.7197 275° West 354 407 20,800 1,050 Climbing Boston Center
Wed 06:23:59 AM 43.0833 -74.8536 274° West 354 407 22,000 1,200 Climbing Boston Center
Wed 06:24:59 AM 43.0908 -74.9933 274° West 359 413 23,200 850 Climbing Boston Center
Wed 06:25:59 AM 43.0983 -75.1158 275° West 371 427 23,700 600 Climbing Boston Center
Wed 06:26:59 AM 43.1094 -75.2614 276° West 371 427 24,400 700 Climbing Boston Center
Wed 06:27:59 AM 43.1164 -75.4069 274° West 376 433 25,100 700 Climbing Boston Center
Wed 06:28:59 AM 43.1269 -75.5525 276° West 381 438 25,800 750 Climbing Boston Center
Wed 06:29:59 AM 43.1333 -75.6953 274° West 388 447 26,600 650 Climbing Boston Center
Wed 06:30:59 AM 43.1406 -75.8094 275° West 388 447 27,100 416 Climbing Boston Center
Wed 06:33:21 AM 43.1583 -76.1856 274° West 394 453 28,000 267 Climbing Cleveland Center
Wed 06:34:21 AM 43.1494 -76.3400 266° West 401 461 28,000  Level Cleveland Center
Wed 06:35:21 AM 43.1361 -76.4889 263° West 406 467 28,000  Level Cleveland Center
Wed 06:36:21 AM 43.1228 -76.6461 263° West 406 467 28,000  Level Cleveland Center
Wed 06:37:21 AM 43.1089 -76.7978 263° West 411 473 28,000  Level Cleveland Center
Wed 06:38:21 AM 43.0933 -76.9553 262° West 411 473 28,000  Level Cleveland Center
Wed 06:39:21 AM 43.0814 -77.1094 264° West 411 473 28,000  Level Cleveland Center
Wed 06:40:21 AM 43.0650 -77.2694 262° West 416 479 28,000  Level Cleveland Center
Wed 06:41:21 AM 43.0508 -77.4267 263° West 416 479 28,000  Level Cleveland Center
Wed 06:42:21 AM 43.0361 -77.5808 263° West 416 479 28,000  Level Cleveland Center
Wed 06:43:21 AM 43.0233 -77.7375 264° West 416 479 28,000  Level Cleveland Center
Wed 06:44:21 AM 43.0083 -77.8944 263° West 416 479 28,000  Level Cleveland Center
Wed 06:45:21 AM 42.9911 -78.0542 262° West 421 484 28,000  Level Cleveland Center
Wed 06:46:21 AM 42.9736 -78.2081 261° West 421 484 28,000  Level Cleveland Center
Wed 06:47:21 AM 42.9561 -78.3847 262° West 426 490 28,000  Level Cleveland Center
Wed 06:48:21 AM 42.9403 -78.5383 262° West 426 490 28,000  Level Cleveland Center
Wed 06:49:21 AM 42.9222 -78.6978 261° West 426 490 28,000  Level Cleveland Center
Wed 06:50:21 AM 42.9017 -78.8544 260° West 426 490 28,000  Level Cleveland Center
Wed 06:51:21 AM 42.8789 -79.0081 259° West 426 490 28,000  Level Cleveland Center
Wed 06:52:21 AM 42.8558 -79.1642 259° West 432 497 28,000  Level Cleveland Center
Wed 06:53:21 AM 42.8306 -79.3206 258° West 427 491 28,000  Level Cleveland Center
Wed 06:54:21 AM 42.8114 -79.4739 260° West 427 491 28,000  Level Cleveland Center
Wed 06:55:21 AM 42.7897 -79.6297 259° West 427 491 28,000  Level Cleveland Center
Wed 06:56:21 AM 42.7658 -79.7856 258° West 427 491 28,000  Level Cleveland Center
Wed 06:57:21 AM 42.7503 -79.9414 262° West 427 491 28,000  Level Cleveland Center
Wed 06:58:21 AM 42.7383 -80.0856 264° West 427 491 28,000  Level Cleveland Center
Wed 06:59:21 AM 42.7347 -80.2439 268° West 427 491 28,000  Level Cleveland Center
Wed 07:00:21 AM 42.7269 -80.3994 266° West 419 482 28,000  Level Cleveland Center
Wed 07:01:21 AM 42.7208 -80.5606 267° West 419 482 28,000  Level Cleveland Center
Wed 07:02:21 AM 42.7144 -80.7161 267° West 425 489 28,000 -600 Level Cleveland Center
Wed 07:03:21 AM 42.7078 -80.8883 267° West 425 489 26,800 -1,150 Descending Cleveland Center
Wed 07:04:21 AM 42.6886 -81.0350 260° West 412 474 25,700 -1,050 Descending Cleveland Center
Wed 07:05:21 AM 42.6733 -81.1733 262° West 400 460 24,700 -1,000 Descending Cleveland Center
Wed 07:06:21 AM 42.6558 -81.3256 261° West 391 450 23,700 -1,000 Descending Cleveland Center
Wed 07:07:21 AM 42.6403 -81.4694 262° West 391 450 22,700 -1,200 Descending Cleveland Center
Wed 07:08:21 AM 42.6222 -81.6131 260° West 391 450 21,300 -1,400 Descending Cleveland Center
Wed 07:09:21 AM 42.6064 -81.7511 261° West 386 444 19,900 -1,350 Descending Cleveland Center
Wed 07:10:21 AM 42.5906 -81.8719 260° West 376 433 18,600 -1,200 Descending Cleveland Center
Wed 07:11:21 AM 42.5744 -82.0042 261° West 371 427 17,500 -1,250 Descending Cleveland Center
Wed 07:12:21 AM 42.5603 -82.1364 262° West 371 427 16,100 -1,400 Descending Cleveland Center
Wed 07:13:21 AM 42.5417 -82.2628 259° West 357 411 14,700 -1,350 Descending Cleveland Center
Wed 07:14:21 AM 42.5272 -82.3864 261° West 345 397 13,400 -1,309 Descending Cleveland Center
Wed 07:15:11 AM 42.5131 -82.5014 261° West 325 374 12,300 -865 Descending Cleveland Center
Wed 07:16:12 AM 42.4858 -82.6189 253° West 328 377 11,800 -836 Descending Cleveland Center
Wed 07:17:13 AM 42.4486 -82.7244 244° Southwest 296 341 10,600 -1,266 Descending Cleveland Center
Wed 07:18:20 AM 42.4358 -82.8422 262° West 266 306 9,100 -1,266 Descending Cleveland Center
Wed 07:19:21 AM 42.4258 -82.9236 261° West 276 318 7,900 -1,138 Descending Cleveland Center
Wed 07:20:16 AM 42.4133 -83.0272 261° West 262 302 6,900 -939 Descending Cleveland Center
Wed 07:21:16 AM 42.4219 -83.1147 278° West 226 260 6,100 -480 Descending Cleveland Center
Wed 07:22:21 AM 42.4183 -83.1847 266° West 229 264 5,900 -885 Descending Cleveland Center
Wed 07:23:18 AM 42.3714 -83.2250 212° Southwest 190 219 4,300 -1,355 Descending Cleveland Center
Wed 07:24:25 AM 42.3206 -83.2622 208° Southwest 165 190 3,100 -1,075 Descending Cleveland Center

Login

Don't have an account? Register now (free) for customized features, flight alerts, and more!